sensor_id;sensor_type;location;lat;lon;timestamp;noise_LAeq;noise_LA_min;noise_LA_max;noise_LA01;noise_LA95
67320;Laerm;57665;51.436;5.978;2023-05-10T00:00:02;36.66;35.47;37.94;;
67320;Laerm;57665;51.436;5.978;2023-05-10T00:00:14;37.06;35.78;40.85;;
67320;Laerm;57665;51.436;5.978;2023-05-10T00:00:25;36.69;35.62;37.79;;
67320;Laerm;57665;51.436;5.978;2023-05-10T00:00:35;36.69;35.87;37.63;;
67320;Laerm;57665;51.436;5.978;2023-05-10T00:00:45;36.68;35.80;37.92;;
67320;Laerm;57665;51.436;5.978;2023-05-10T00:00:56;37.62;35.71;47.48;;
67320;Laerm;57665;51.436;5.978;2023-05-10T00:01:07;36.73;35.63;37.75;;
67320;Laerm;57665;51.436;5.978;2023-05-10T00:01:20;36.71;35.66;37.66;;
67320;Laerm;57665;51.436;5.978;2023-05-10T00:01:30;36.79;35.80;41.39;;
67320;Laerm;57665;51.436;5.978;2023-05-10T00:01:40;36.75;35.68;38.38;;
67320;Laerm;57665;51.436;5.978;2023-05-10T00:01:50;36.69;35.73;37.86;;
67320;Laerm;57665;51.436;5.978;2023-05-10T00:02:01;36.71;35.73;37.84;;
67320;Laerm;57665;51.436;5.978;2023-05-10T00:02:11;36.84;35.75;38.32;;
67320;Laerm;57665;51.436;5.978;2023-05-10T00:02:21;36.83;35.94;37.78;;
67320;Laerm;57665;51.436;5.978;2023-05-10T00:02:32;36.90;35.76;38.32;;
67320;Laerm;57665;51.436;5.978;2023-05-10T00:02:43;47.58;36.50;59.60;;
67320;Laerm;57665;51.436;5.978;2023-05-10T00:02:53;62.33;57.98;69.04;;
67320;Laerm;57665;51.436;5.978;2023-05-10T00:03:03;63.56;58.62;69.26;;
67320;Laerm;57665;51.436;5.978;2023-05-10T00:03:19;67.56;38.13;82.97;;
67320;Laerm;57665;51.436;5.978;2023-05-10T00:03:29;38.20;36.59;40.23;;
67320;Laerm;57665;51.436;5.978;2023-05-10T00:03:40;37.07;36.09;38.27;;
67320;Laerm;57665;51.436;5.978;2023-05-10T00:03:50;36.76;35.49;38.34;;
67320;Laerm;57665;51.436;5.978;2023-05-10T00:04:01;36.63;35.66;37.90;;
67320;Laerm;57665;51.436;5.978;2023-05-10T00:04:11;36.65;35.36;38.17;;
67320;Laerm;57665;51.436;5.978;2023-05-10T00:04:21;36.60;34.96;38.24;;
67320;Laerm;57665;51.436;5.978;2023-05-10T00:04:35;36.63;35.36;37.47;;
67320;Laerm;57665;51.436;5.978;2023-05-10T00:04:45;36.61;35.52;37.53;;
67320;Laerm;57665;51.436;5.978;2023-05-10T00:04:55;36.67;35.62;38.29;;
67320;Laerm;57665;51.436;5.978;2023-05-10T00:05:05;36.57;35.60;37.50;;
67320;Laerm;57665;51.436;5.978;2023-05-10T00:05:16;36.60;35.56;38.05;;
67320;Laerm;57665;51.436;5.978;2023-05-10T00:05:26;36.61;35.63;38.63;;
67320;Laerm;57665;51.436;5.978;2023-05-10T00:05:36;36.57;35.67;37.65;;
67320;Laerm;57665;51.436;5.978;2023-05-10T00:05:47;36.56;35.40;37.30;;
67320;Laerm;57665;51.436;5.978;2023-05-10T00:05:57;36.58;35.66;37.66;;
67320;Laerm;57665;51.436;5.978;2023-05-10T00:06:07;36.58;35.51;38.05;;
67320;Laerm;57665;51.436;5.978;2023-05-10T00:06:17;36.56;35.39;38.80;;
67320;Laerm;57665;51.436;5.978;2023-05-10T00:06:29;36.55;35.11;37.56;;
67320;Laerm;57665;51.436;5.978;2023-05-10T00:06:40;36.54;35.53;37.53;;
67320;Laerm;57665;51.436;5.978;2023-05-10T00:06:50;36.54;35.49;37.60;;
67320;Laerm;57665;51.436;5.978;2023-05-10T00:07:00;36.57;35.43;37.37;;
67320;Laerm;57665;51.436;5.978;2023-05-10T00:07:11;36.57;35.42;37.83;;
67320;Laerm;57665;51.436;5.978;2023-05-10T00:07:21;36.56;35.65;37.70;;
67320;Laerm;57665;51.436;5.978;2023-05-10T00:07:31;36.63;34.88;37.86;;
67320;Laerm;57665;51.436;5.978;2023-05-10T00:07:42;36.69;35.72;37.97;;
67320;Laerm;57665;51.436;5.978;2023-05-10T00:07:54;36.73;35.74;37.87;;
67320;Laerm;57665;51.436;5.978;2023-05-10T00:08:04;36.77;35.82;37.75;;
67320;Laerm;57665;51.436;5.978;2023-05-10T00:08:15;36.63;35.59;37.87;;
67320;Laerm;57665;51.436;5.978;2023-05-10T00:08:25;45.46;35.76;56.91;;
67320;Laerm;57665;51.436;5.978;2023-05-10T00:08:35;64.49;56.55;70.36;;
67320;Laerm;57665;51.436;5.978;2023-05-10T00:08:46;64.12;59.66;69.00;;
67320;Laerm;57665;51.436;5.978;2023-05-10T00:08:56;61.42;43.67;68.31;;
67320;Laerm;57665;51.436;5.978;2023-05-10T00:09:06;41.02;37.99;45.10;;
67320;Laerm;57665;51.436;5.978;2023-05-10T00:09:16;37.89;36.32;40.20;;
67320;Laerm;57665;51.436;5.978;2023-05-10T00:09:27;36.92;35.88;37.88;;
67320;Laerm;57665;51.436;5.978;2023-05-10T00:09:37;36.69;35.62;37.82;;
67320;Laerm;57665;51.436;5.978;2023-05-10T00:09:52;36.66;35.77;37.46;;
67320;Laerm;57665;51.436;5.978;2023-05-10T00:10:03;36.61;35.28;37.70;;
67320;Laerm;57665;51.436;5.978;2023-05-10T00:10:13;36.59;35.45;37.67;;
67320;Laerm;57665;51.436;5.978;2023-05-10T00:10:23;36.56;35.07;37.77;;
67320;Laerm;57665;51.436;5.978;2023-05-10T00:10:34;36.60;35.42;37.56;;
67320;Laerm;57665;51.436;5.978;2023-05-10T00:10:44;36.54;35.64;37.45;;
67320;Laerm;57665;51.436;5.978;2023-05-10T00:10:54;36.55;35.56;37.62;;
67320;Laerm;57665;51.436;5.978;2023-05-10T00:11:08;36.56;35.77;37.66;;
67320;Laerm;57665;51.436;5.978;2023-05-10T00:11:18;36.58;35.56;39.48;;
67320;Laerm;57665;51.436;5.978;2023-05-10T00:11:31;36.59;35.47;38.08;;
67320;Laerm;57665;51.436;5.978;2023-05-10T00:11:42;36.57;35.26;37.94;;
67320;Laerm;57665;51.436;5.978;2023-05-10T00:11:52;36.66;35.54;37.98;;
67320;Laerm;57665;51.436;5.978;2023-05-10T00:12:02;36.63;35.32;37.66;;
67320;Laerm;57665;51.436;5.978;2023-05-10T00:12:13;36.56;35.67;37.61;;
67320;Laerm;57665;51.436;5.978;2023-05-10T00:12:23;36.63;35.34;39.41;;
67320;Laerm;57665;51.436;5.978;2023-05-10T00:12:33;36.58;35.55;37.81;;
67320;Laerm;57665;51.436;5.978;2023-05-10T00:12:44;36.58;35.46;37.53;;
67320;Laerm;57665;51.436;5.978;2023-05-10T00:12:54;36.55;35.52;37.75;;
67320;Laerm;57665;51.436;5.978;2023-05-10T00:13:04;36.53;35.46;37.63;;
67320;Laerm;57665;51.436;5.978;2023-05-10T00:13:14;36.55;35.59;37.50;;
67320;Laerm;57665;51.436;5.978;2023-05-10T00:13:25;36.57;35.61;37.55;;
67320;Laerm;57665;51.436;5.978;2023-05-10T00:13:35;36.75;35.64;37.99;;
67320;Laerm;57665;51.436;5.978;2023-05-10T00:13:45;36.81;35.82;37.75;;
67320;Laerm;57665;51.436;5.978;2023-05-10T00:13:56;36.87;35.92;37.93;;
67320;Laerm;57665;51.436;5.978;2023-05-10T00:14:06;37.64;36.05;39.96;;
67320;Laerm;57665;51.436;5.978;2023-05-10T00:14:16;60.32;39.33;68.13;;
67320;Laerm;57665;51.436;5.978;2023-05-10T00:14:27;65.56;59.70;71.90;;
67320;Laerm;57665;51.436;5.978;2023-05-10T00:14:37;62.04;56.99;67.65;;
67320;Laerm;57665;51.436;5.978;2023-05-10T00:14:47;49.74;36.54;60.71;;
67320;Laerm;57665;51.436;5.978;2023-05-10T00:14:57;36.75;35.72;38.04;;
67320;Laerm;57665;51.436;5.978;2023-05-10T00:15:08;36.58;35.60;37.87;;
67320;Laerm;57665;51.436;5.978;2023-05-10T00:15:18;36.57;35.48;38.05;;
67320;Laerm;57665;51.436;5.978;2023-05-10T00:15:28;36.54;35.61;37.43;;
67320;Laerm;57665;51.436;5.978;2023-05-10T00:15:40;36.56;35.52;37.75;;
67320;Laerm;57665;51.436;5.978;2023-05-10T00:15:50;36.52;35.06;37.47;;
67320;Laerm;57665;51.436;5.978;2023-05-10T00:16:00;36.53;35.58;37.29;;
67320;Laerm;57665;51.436;5.978;2023-05-10T00:16:11;36.52;35.55;37.47;;
67320;Laerm;57665;51.436;5.978;2023-05-10T00:16:22;36.51;35.51;37.45;;
67320;Laerm;57665;51.436;5.978;2023-05-10T00:16:33;36.59;35.72;37.79;;
67320;Laerm;57665;51.436;5.978;2023-05-10T00:16:43;36.60;35.55;37.60;;
67320;Laerm;57665;51.436;5.978;2023-05-10T00:16:53;36.55;35.46;37.50;;
67320;Laerm;57665;51.436;5.978;2023-05-10T00:17:04;36.54;35.56;37.43;;
67320;Laerm;57665;51.436;5.978;2023-05-10T00:17:14;36.59;35.57;37.54;;
67320;Laerm;57665;51.436;5.978;2023-05-10T00:17:24;36.75;35.90;38.00;;
67320;Laerm;57665;51.436;5.978;2023-05-10T00:17:34;36.87;35.61;37.95;;
67320;Laerm;57665;51.436;5.978;2023-05-10T00:17:44;37.01;35.91;37.93;;
67320;Laerm;57665;51.436;5.978;2023-05-10T00:17:55;38.83;36.30;43.33;;
67320;Laerm;57665;51.436;5.978;2023-05-10T00:18:05;61.72;42.12;67.91;;
67320;Laerm;57665;51.436;5.978;2023-05-10T00:18:15;60.34;55.89;65.47;;
67320;Laerm;57665;51.436;5.978;2023-05-10T00:18:25;58.36;39.01;70.91;;
67320;Laerm;57665;51.436;5.978;2023-05-10T00:18:36;37.55;35.83;40.19;;
67320;Laerm;57665;51.436;5.978;2023-05-10T00:18:46;36.68;35.58;37.52;;
67320;Laerm;57665;51.436;5.978;2023-05-10T00:18:56;36.61;35.86;37.60;;
67320;Laerm;57665;51.436;5.978;2023-05-10T00:19:06;36.64;35.67;37.57;;
67320;Laerm;57665;51.436;5.978;2023-05-10T00:19:16;36.55;35.50;37.53;;
67320;Laerm;57665;51.436;5.978;2023-05-10T00:19:27;36.54;35.44;37.55;;
67320;Laerm;57665;51.436;5.978;2023-05-10T00:19:37;36.55;35.19;37.75;;
67320;Laerm;57665;51.436;5.978;2023-05-10T00:19:47;36.53;35.54;37.58;;
67320;Laerm;57665;51.436;5.978;2023-05-10T00:19:58;36.52;35.49;37.42;;
67320;Laerm;57665;51.436;5.978;2023-05-10T00:20:08;36.50;35.50;37.53;;
67320;Laerm;57665;51.436;5.978;2023-05-10T00:20:19;36.55;35.61;37.80;;
67320;Laerm;57665;51.436;5.978;2023-05-10T00:20:29;36.56;35.49;37.95;;
67320;Laerm;57665;51.436;5.978;2023-05-10T00:20:39;36.55;35.57;37.50;;
67320;Laerm;57665;51.436;5.978;2023-05-10T00:20:49;36.73;35.86;37.55;;
67320;Laerm;57665;51.436;5.978;2023-05-10T00:21:00;36.80;35.52;37.74;;
67320;Laerm;57665;51.436;5.978;2023-05-10T00:21:10;37.19;35.84;38.79;;
67320;Laerm;57665;51.436;5.978;2023-05-10T00:21:20;45.97;37.23;57.33;;
67320;Laerm;57665;51.436;5.978;2023-05-10T00:21:31;67.87;56.04;76.15;;
67320;Laerm;57665;51.436;5.978;2023-05-10T00:21:42;68.43;45.71;75.50;;
67320;Laerm;57665;51.436;5.978;2023-05-10T00:21:52;40.27;36.63;47.23;;
67320;Laerm;57665;51.436;5.978;2023-05-10T00:22:02;36.79;35.67;37.75;;
67320;Laerm;57665;51.436;5.978;2023-05-10T00:22:13;36.60;35.42;37.78;;
67320;Laerm;57665;51.436;5.978;2023-05-10T00:22:23;36.54;35.61;37.54;;
67320;Laerm;57665;51.436;5.978;2023-05-10T00:22:33;36.58;35.33;37.62;;
67320;Laerm;57665;51.436;5.978;2023-05-10T00:22:43;36.51;35.32;37.70;;
67320;Laerm;57665;51.436;5.978;2023-05-10T00:22:54;36.55;35.66;38.71;;
67320;Laerm;57665;51.436;5.978;2023-05-10T00:23:04;36.55;35.53;37.68;;
67320;Laerm;57665;51.436;5.978;2023-05-10T00:23:14;36.51;35.26;37.81;;
67320;Laerm;57665;51.436;5.978;2023-05-10T00:23:24;36.52;35.61;37.38;;
67320;Laerm;57665;51.436;5.978;2023-05-10T00:23:35;36.50;35.36;37.45;;
67320;Laerm;57665;51.436;5.978;2023-05-10T00:23:45;36.53;35.51;37.91;;
67320;Laerm;57665;51.436;5.978;2023-05-10T00:23:55;36.51;35.55;37.72;;
67320;Laerm;57665;51.436;5.978;2023-05-10T00:24:05;36.59;35.69;37.84;;
67320;Laerm;57665;51.436;5.978;2023-05-10T00:24:16;36.56;35.59;37.56;;
67320;Laerm;57665;51.436;5.978;2023-05-10T00:24:26;36.54;35.67;37.55;;
67320;Laerm;57665;51.436;5.978;2023-05-10T00:24:36;36.51;35.21;37.60;;
67320;Laerm;57665;51.436;5.978;2023-05-10T00:24:46;36.61;35.58;37.51;;
67320;Laerm;57665;51.436;5.978;2023-05-10T00:24:57;36.64;35.59;37.65;;
67320;Laerm;57665;51.436;5.978;2023-05-10T00:25:07;36.69;35.57;37.64;;
67320;Laerm;57665;51.436;5.978;2023-05-10T00:25:18;36.60;35.37;37.40;;
67320;Laerm;57665;51.436;5.978;2023-05-10T00:25:28;36.63;35.56;37.69;;
67320;Laerm;57665;51.436;5.978;2023-05-10T00:25:38;62.28;36.33;69.91;;
67320;Laerm;57665;51.436;5.978;2023-05-10T00:25:48;63.38;59.96;67.93;;
67320;Laerm;57665;51.436;5.978;2023-05-10T00:25:59;61.56;40.11;67.92;;
67320;Laerm;57665;51.436;5.978;2023-05-10T00:26:09;39.45;37.19;43.96;;
67320;Laerm;57665;51.436;5.978;2023-05-10T00:26:20;37.51;36.01;39.69;;
67320;Laerm;57665;51.436;5.978;2023-05-10T00:26:30;39.97;36.95;45.15;;
67320;Laerm;57665;51.436;5.978;2023-05-10T00:26:43;37.92;35.69;41.53;;
67320;Laerm;57665;51.436;5.978;2023-05-10T00:26:53;36.92;35.87;38.10;;
67320;Laerm;57665;51.436;5.978;2023-05-10T00:27:09;36.61;35.76;37.45;;
67320;Laerm;57665;51.436;5.978;2023-05-10T00:27:19;36.57;35.66;37.54;;
67320;Laerm;57665;51.436;5.978;2023-05-10T00:27:29;36.55;35.46;38.57;;
67320;Laerm;57665;51.436;5.978;2023-05-10T00:27:40;36.54;35.47;37.74;;
67320;Laerm;57665;51.436;5.978;2023-05-10T00:27:50;36.59;35.41;37.55;;
67320;Laerm;57665;51.436;5.978;2023-05-10T00:28:05;36.54;35.39;37.59;;
67320;Laerm;57665;51.436;5.978;2023-05-10T00:28:15;36.52;35.30;37.57;;
67320;Laerm;57665;51.436;5.978;2023-05-10T00:28:26;36.55;35.48;37.82;;
67320;Laerm;57665;51.436;5.978;2023-05-10T00:28:37;36.52;35.47;38.03;;
67320;Laerm;57665;51.436;5.978;2023-05-10T00:28:47;36.54;35.61;37.45;;
67320;Laerm;57665;51.436;5.978;2023-05-10T00:28:57;36.52;35.42;37.39;;
67320;Laerm;57665;51.436;5.978;2023-05-10T00:29:08;36.55;35.68;37.61;;
67320;Laerm;57665;51.436;5.978;2023-05-10T00:29:18;36.57;35.43;37.37;;
67320;Laerm;57665;51.436;5.978;2023-05-10T00:29:29;36.53;35.43;37.62;;
67320;Laerm;57665;51.436;5.978;2023-05-10T00:29:39;36.55;35.61;38.67;;
67320;Laerm;57665;51.436;5.978;2023-05-10T00:29:50;36.58;35.69;37.45;;
67320;Laerm;57665;51.436;5.978;2023-05-10T00:30:00;36.54;35.58;37.41;;
67320;Laerm;57665;51.436;5.978;2023-05-10T00:30:10;36.59;35.54;37.63;;
67320;Laerm;57665;51.436;5.978;2023-05-10T00:30:20;36.58;35.69;37.74;;
67320;Laerm;57665;51.436;5.978;2023-05-10T00:30:31;36.56;35.26;37.72;;
67320;Laerm;57665;51.436;5.978;2023-05-10T00:30:41;36.60;35.68;37.60;;
67320;Laerm;57665;51.436;5.978;2023-05-10T00:30:51;36.76;35.25;37.72;;
67320;Laerm;57665;51.436;5.978;2023-05-10T00:31:02;36.82;35.84;38.40;;
67320;Laerm;57665;51.436;5.978;2023-05-10T00:31:12;37.56;35.73;41.12;;
67320;Laerm;57665;51.436;5.978;2023-05-10T00:31:22;56.09;36.89;65.41;;
67320;Laerm;57665;51.436;5.978;2023-05-10T00:31:33;64.74;60.22;70.40;;
67320;Laerm;57665;51.436;5.978;2023-05-10T00:31:43;67.38;63.04;73.98;;
67320;Laerm;57665;51.436;5.978;2023-05-10T00:31:53;61.36;38.22;73.87;;
67320;Laerm;57665;51.436;5.978;2023-05-10T00:32:04;37.62;35.65;39.65;;
67320;Laerm;57665;51.436;5.978;2023-05-10T00:32:14;36.72;35.68;37.82;;
67320;Laerm;57665;51.436;5.978;2023-05-10T00:32:24;36.57;35.59;38.65;;
67320;Laerm;57665;51.436;5.978;2023-05-10T00:32:34;36.54;35.57;37.52;;
67320;Laerm;57665;51.436;5.978;2023-05-10T00:32:45;36.53;35.50;37.31;;
67320;Laerm;57665;51.436;5.978;2023-05-10T00:32:55;36.55;35.70;37.49;;
67320;Laerm;57665;51.436;5.978;2023-05-10T00:33:05;36.54;35.46;37.60;;
67320;Laerm;57665;51.436;5.978;2023-05-10T00:33:15;36.55;35.62;37.67;;
67320;Laerm;57665;51.436;5.978;2023-05-10T00:33:26;36.53;35.40;37.62;;
67320;Laerm;57665;51.436;5.978;2023-05-10T00:33:36;36.52;35.36;37.40;;
67320;Laerm;57665;51.436;5.978;2023-05-10T00:33:46;36.50;35.44;37.51;;
67320;Laerm;57665;51.436;5.978;2023-05-10T00:33:56;36.49;35.33;37.67;;
67320;Laerm;57665;51.436;5.978;2023-05-10T00:34:07;36.54;35.59;37.77;;
67320;Laerm;57665;51.436;5.978;2023-05-10T00:34:17;36.54;35.57;37.67;;
67320;Laerm;57665;51.436;5.978;2023-05-10T00:34:27;36.58;35.51;37.44;;
67320;Laerm;57665;51.436;5.978;2023-05-10T00:34:38;36.58;35.47;37.82;;
67320;Laerm;57665;51.436;5.978;2023-05-10T00:34:48;36.56;35.40;37.68;;
67320;Laerm;57665;51.436;5.978;2023-05-10T00:34:58;36.53;35.46;37.59;;
67320;Laerm;57665;51.436;5.978;2023-05-10T00:35:09;36.52;35.42;37.63;;
67320;Laerm;57665;51.436;5.978;2023-05-10T00:35:19;36.53;35.35;37.45;;
67320;Laerm;57665;51.436;5.978;2023-05-10T00:35:29;36.50;35.42;37.64;;
67320;Laerm;57665;51.436;5.978;2023-05-10T00:35:40;36.59;35.51;37.67;;
67320;Laerm;57665;51.436;5.978;2023-05-10T00:35:50;36.52;35.48;37.42;;
67320;Laerm;57665;51.436;5.978;2023-05-10T00:36:00;36.52;35.57;37.52;;
67320;Laerm;57665;51.436;5.978;2023-05-10T00:36:11;36.52;35.29;37.46;;
67320;Laerm;57665;51.436;5.978;2023-05-10T00:36:21;36.55;35.35;37.54;;
67320;Laerm;57665;51.436;5.978;2023-05-10T00:36:31;36.52;35.63;37.19;;
67320;Laerm;57665;51.436;5.978;2023-05-10T00:36:42;36.55;35.36;37.51;;
67320;Laerm;57665;51.436;5.978;2023-05-10T00:36:52;36.54;35.21;37.66;;
67320;Laerm;57665;51.436;5.978;2023-05-10T00:37:02;36.58;35.71;37.75;;
67320;Laerm;57665;51.436;5.978;2023-05-10T00:37:12;36.57;35.51;37.60;;
67320;Laerm;57665;51.436;5.978;2023-05-10T00:37:22;36.56;35.53;37.67;;
67320;Laerm;57665;51.436;5.978;2023-05-10T00:37:33;36.54;35.36;37.89;;
67320;Laerm;57665;51.436;5.978;2023-05-10T00:37:43;36.57;35.61;37.63;;
67320;Laerm;57665;51.436;5.978;2023-05-10T00:37:53;36.51;35.09;37.98;;
67320;Laerm;57665;51.436;5.978;2023-05-10T00:38:04;36.57;35.49;37.93;;
67320;Laerm;57665;51.436;5.978;2023-05-10T00:38:14;36.54;35.51;37.55;;
67320;Laerm;57665;51.436;5.978;2023-05-10T00:38:24;36.90;35.78;38.00;;
67320;Laerm;57665;51.436;5.978;2023-05-10T00:38:34;38.36;36.26;40.85;;
67320;Laerm;57665;51.436;5.978;2023-05-10T00:38:44;42.93;37.35;48.52;;
67320;Laerm;57665;51.436;5.978;2023-05-10T00:38:55;37.04;35.47;38.25;;
67320;Laerm;57665;51.436;5.978;2023-05-10T00:39:06;36.55;35.51;37.47;;
67320;Laerm;57665;51.436;5.978;2023-05-10T00:39:16;36.53;35.27;37.65;;
67320;Laerm;57665;51.436;5.978;2023-05-10T00:39:26;36.55;35.58;37.64;;
67320;Laerm;57665;51.436;5.978;2023-05-10T00:39:38;36.54;35.48;37.45;;
67320;Laerm;57665;51.436;5.978;2023-05-10T00:39:48;36.49;35.49;37.49;;
67320;Laerm;57665;51.436;5.978;2023-05-10T00:39:58;36.49;35.34;37.51;;
67320;Laerm;57665;51.436;5.978;2023-05-10T00:40:09;36.54;35.43;37.54;;
67320;Laerm;57665;51.436;5.978;2023-05-10T00:40:19;36.54;35.33;37.68;;
67320;Laerm;57665;51.436;5.978;2023-05-10T00:40:30;36.53;35.58;37.48;;
67320;Laerm;57665;51.436;5.978;2023-05-10T00:40:40;36.54;35.41;37.47;;
67320;Laerm;57665;51.436;5.978;2023-05-10T00:40:51;36.50;35.61;37.65;;
67320;Laerm;57665;51.436;5.978;2023-05-10T00:41:01;36.54;35.06;37.41;;
67320;Laerm;57665;51.436;5.978;2023-05-10T00:41:11;36.52;35.53;37.37;;
67320;Laerm;57665;51.436;5.978;2023-05-10T00:41:22;36.54;35.40;38.02;;
67320;Laerm;57665;51.436;5.978;2023-05-10T00:41:32;36.54;35.50;37.64;;
67320;Laerm;57665;51.436;5.978;2023-05-10T00:41:51;36.56;35.57;37.81;;
67320;Laerm;57665;51.436;5.978;2023-05-10T00:42:01;36.57;35.35;37.65;;
67320;Laerm;57665;51.436;5.978;2023-05-10T00:42:11;36.55;35.42;39.41;;
67320;Laerm;57665;51.436;5.978;2023-05-10T00:42:22;36.53;35.50;37.49;;
67320;Laerm;57665;51.436;5.978;2023-05-10T00:42:32;36.52;35.29;38.83;;
67320;Laerm;57665;51.436;5.978;2023-05-10T00:42:42;36.52;35.60;37.48;;
67320;Laerm;57665;51.436;5.978;2023-05-10T00:42:56;36.51;35.12;37.44;;
67320;Laerm;57665;51.436;5.978;2023-05-10T00:43:07;36.53;35.45;37.53;;
67320;Laerm;57665;51.436;5.978;2023-05-10T00:43:17;36.50;35.55;37.55;;
67320;Laerm;57665;51.436;5.978;2023-05-10T00:43:27;36.53;35.48;37.61;;
67320;Laerm;57665;51.436;5.978;2023-05-10T00:43:37;36.46;35.55;37.51;;
67320;Laerm;57665;51.436;5.978;2023-05-10T00:43:48;36.49;35.44;37.36;;
67320;Laerm;57665;51.436;5.978;2023-05-10T00:43:58;36.50;35.44;37.61;;
67320;Laerm;57665;51.436;5.978;2023-05-10T00:44:08;36.52;35.44;37.56;;
67320;Laerm;57665;51.436;5.978;2023-05-10T00:44:19;36.51;35.56;37.47;;
67320;Laerm;57665;51.436;5.978;2023-05-10T00:44:29;36.55;35.56;37.66;;
67320;Laerm;57665;51.436;5.978;2023-05-10T00:44:40;36.71;35.69;38.40;;
67320;Laerm;57665;51.436;5.978;2023-05-10T00:44:51;36.67;35.65;37.98;;
67320;Laerm;57665;51.436;5.978;2023-05-10T00:45:01;36.57;35.31;37.62;;
67320;Laerm;57665;51.436;5.978;2023-05-10T00:45:11;36.63;35.49;37.78;;
67320;Laerm;57665;51.436;5.978;2023-05-10T00:45:22;37.03;35.46;40.93;;
67320;Laerm;57665;51.436;5.978;2023-05-10T00:45:32;64.51;39.63;73.19;;
67320;Laerm;57665;51.436;5.978;2023-05-10T00:45:43;70.44;58.90;79.21;;
67320;Laerm;57665;51.436;5.978;2023-05-10T00:45:53;62.36;42.05;77.45;;
67320;Laerm;57665;51.436;5.978;2023-05-10T00:46:06;40.05;37.09;44.65;;
67320;Laerm;57665;51.436;5.978;2023-05-10T00:46:17;37.31;36.20;38.60;;
67320;Laerm;57665;51.436;5.978;2023-05-10T00:46:31;37.10;35.76;38.34;;
67320;Laerm;57665;51.436;5.978;2023-05-10T00:46:51;37.07;35.83;38.07;;
67320;Laerm;57665;51.436;5.978;2023-05-10T00:47:02;36.74;35.70;39.72;;
67320;Laerm;57665;51.436;5.978;2023-05-10T00:47:12;36.76;35.52;37.94;;
67320;Laerm;57665;51.436;5.978;2023-05-10T00:47:23;36.88;35.80;37.81;;
67320;Laerm;57665;51.436;5.978;2023-05-10T00:47:33;36.73;35.92;37.80;;
67320;Laerm;57665;51.436;5.978;2023-05-10T00:47:46;36.64;35.74;37.70;;
67320;Laerm;57665;51.436;5.978;2023-05-10T00:48:00;36.59;35.56;37.51;;
67320;Laerm;57665;51.436;5.978;2023-05-10T00:48:12;36.63;35.51;37.62;;
67320;Laerm;57665;51.436;5.978;2023-05-10T00:48:52;36.55;35.41;37.58;;
67320;Laerm;57665;51.436;5.978;2023-05-10T00:49:17;36.57;35.68;37.88;;
67320;Laerm;57665;51.436;5.978;2023-05-10T00:49:41;36.54;35.32;37.58;;
67320;Laerm;57665;51.436;5.978;2023-05-10T00:49:51;36.56;35.37;37.56;;
67320;Laerm;57665;51.436;5.978;2023-05-10T00:50:02;36.58;35.47;37.83;;
67320;Laerm;57665;51.436;5.978;2023-05-10T00:50:12;36.55;35.66;37.57;;
67320;Laerm;57665;51.436;5.978;2023-05-10T00:50:32;36.51;35.39;38.27;;
67320;Laerm;57665;51.436;5.978;2023-05-10T00:50:42;36.49;35.61;37.66;;
67320;Laerm;57665;51.436;5.978;2023-05-10T00:50:53;36.52;35.55;37.43;;
67320;Laerm;57665;51.436;5.978;2023-05-10T00:51:03;36.55;35.29;37.85;;
67320;Laerm;57665;51.436;5.978;2023-05-10T00:51:13;36.64;35.33;37.71;;
67320;Laerm;57665;51.436;5.978;2023-05-10T00:51:24;36.64;35.71;37.74;;
67320;Laerm;57665;51.436;5.978;2023-05-10T00:51:34;36.73;35.61;37.75;;
67320;Laerm;57665;51.436;5.978;2023-05-10T00:51:45;36.75;35.49;37.90;;
67320;Laerm;57665;51.436;5.978;2023-05-10T00:51:55;48.27;35.95;60.67;;
67320;Laerm;57665;51.436;5.978;2023-05-10T00:52:06;68.24;60.80;72.80;;
67320;Laerm;57665;51.436;5.978;2023-05-10T00:52:16;70.01;58.57;78.59;;
67320;Laerm;57665;51.436;5.978;2023-05-10T00:52:27;49.54;40.72;60.20;;
67320;Laerm;57665;51.436;5.978;2023-05-10T00:52:38;39.03;36.20;42.68;;
67320;Laerm;57665;51.436;5.978;2023-05-10T00:52:48;37.15;36.07;38.30;;
67320;Laerm;57665;51.436;5.978;2023-05-10T00:52:59;36.93;35.81;37.96;;
67320;Laerm;57665;51.436;5.978;2023-05-10T00:53:09;37.71;36.28;41.54;;
67320;Laerm;57665;51.436;5.978;2023-05-10T00:53:20;39.65;35.76;45.96;;
67320;Laerm;57665;51.436;5.978;2023-05-10T00:53:31;36.69;35.65;38.17;;
67320;Laerm;57665;51.436;5.978;2023-05-10T00:53:42;36.80;35.53;38.17;;
67320;Laerm;57665;51.436;5.978;2023-05-10T00:53:53;36.69;35.44;37.62;;
67320;Laerm;57665;51.436;5.978;2023-05-10T00:54:05;36.57;35.47;37.61;;
67320;Laerm;57665;51.436;5.978;2023-05-10T00:54:16;36.58;35.62;37.73;;
67320;Laerm;57665;51.436;5.978;2023-05-10T00:54:27;36.56;35.51;37.69;;
67320;Laerm;57665;51.436;5.978;2023-05-10T00:54:37;36.51;35.21;37.56;;
67320;Laerm;57665;51.436;5.978;2023-05-10T00:54:47;36.50;35.37;37.47;;
67320;Laerm;57665;51.436;5.978;2023-05-10T00:54:58;36.59;35.72;37.87;;
67320;Laerm;57665;51.436;5.978;2023-05-10T00:55:09;36.57;35.60;37.73;;
67320;Laerm;57665;51.436;5.978;2023-05-10T00:55:20;36.56;35.55;37.49;;
67320;Laerm;57665;51.436;5.978;2023-05-10T00:55:30;36.54;35.50;37.52;;
67320;Laerm;57665;51.436;5.978;2023-05-10T00:55:41;36.52;35.48;37.49;;
67320;Laerm;57665;51.436;5.978;2023-05-10T00:55:51;36.51;35.57;37.57;;
67320;Laerm;57665;51.436;5.978;2023-05-10T00:56:05;36.49;35.17;37.52;;
67320;Laerm;57665;51.436;5.978;2023-05-10T00:56:15;37.63;35.49;40.60;;
67320;Laerm;57665;51.436;5.978;2023-05-10T00:56:26;40.58;37.21;44.58;;
67320;Laerm;57665;51.436;5.978;2023-05-10T00:56:36;37.22;35.72;38.24;;
67320;Laerm;57665;51.436;5.978;2023-05-10T00:56:47;36.58;35.52;37.58;;
67320;Laerm;57665;51.436;5.978;2023-05-10T00:56:59;36.59;35.58;37.46;;
67320;Laerm;57665;51.436;5.978;2023-05-10T00:57:09;36.59;35.56;37.50;;
67320;Laerm;57665;51.436;5.978;2023-05-10T00:57:19;36.58;35.42;37.65;;
67320;Laerm;57665;51.436;5.978;2023-05-10T00:57:33;36.50;35.45;37.64;;
67320;Laerm;57665;51.436;5.978;2023-05-10T00:57:44;36.54;35.35;37.46;;
67320;Laerm;57665;51.436;5.978;2023-05-10T00:57:54;36.54;35.65;37.71;;
67320;Laerm;57665;51.436;5.978;2023-05-10T00:58:04;36.53;35.57;37.51;;
67320;Laerm;57665;51.436;5.978;2023-05-10T00:58:15;36.52;35.49;37.69;;
67320;Laerm;57665;51.436;5.978;2023-05-10T00:58:25;36.52;35.62;37.47;;
67320;Laerm;57665;51.436;5.978;2023-05-10T00:58:38;36.55;35.48;37.46;;
67320;Laerm;57665;51.436;5.978;2023-05-10T00:58:49;36.48;35.37;37.59;;
67320;Laerm;57665;51.436;5.978;2023-05-10T00:58:59;36.54;35.26;37.47;;
67320;Laerm;57665;51.436;5.978;2023-05-10T00:59:09;36.49;35.46;37.52;;
67320;Laerm;57665;51.436;5.978;2023-05-10T00:59:20;36.50;35.58;37.37;;
67320;Laerm;57665;51.436;5.978;2023-05-10T00:59:31;36.59;35.57;37.79;;
67320;Laerm;57665;51.436;5.978;2023-05-10T00:59:42;36.54;35.61;37.68;;
67320;Laerm;57665;51.436;5.978;2023-05-10T00:59:52;36.54;35.51;37.64;;
67320;Laerm;57665;51.436;5.978;2023-05-10T01:00:02;36.62;35.71;37.47;;
67320;Laerm;57665;51.436;5.978;2023-05-10T01:00:15;37.44;35.54;43.56;;
67320;Laerm;57665;51.436;5.978;2023-05-10T01:00:28;36.65;35.70;37.66;;
67320;Laerm;57665;51.436;5.978;2023-05-10T01:00:39;36.76;35.86;37.78;;